Time;durP1;ratioP1;P1;durP2;ratioP2;P2;SDS_P1;SDS_P2;PMS_P1;PMS_P2;Temp;Humidity;BMP_temperature;BMP_pressure;BME280_temperature;BME280_humidity;BME280_pressure;Samples;Min_cycle;Max_cycle;Signal;HPM_P1;HPM_P2
2023/09/04 00:00:07;;;;;;;5.38;2.90;;;20.70;99.90;;;;;;4591903;19;20466;-74
2023/09/04 00:02:02;;;;;;;6.80;3.25;;;20.60;99.90;;;;;;4592361;19;20018;-74
2023/09/04 00:03:37;;;;;;;6.68;3.15;;;20.60;99.90;;;;;;4591088;19;20025;-74
2023/09/04 00:05:12;;;;;;;8.05;3.53;;;20.70;99.90;;;;;;4592117;19;19999;-73
2023/09/04 00:06:46;;;;;;;5.95;2.85;;;20.70;99.90;;;;;;4592545;19;20002;-73
2023/09/04 00:08:20;;;;;;;4.05;2.50;;;20.70;99.90;;;;;;4591693;19;20029;-73
2023/09/04 00:09:55;;;;;;;6.63;2.72;;;20.70;99.90;;;;;;4590855;19;20434;-74
2023/09/04 00:11:29;;;;;;;4.97;3.03;;;20.70;99.90;;;;;;4592089;19;20302;-74
2023/09/04 00:13:03;;;;;;;5.80;3.22;;;20.70;99.90;;;;;;4590670;19;20011;-74
2023/09/04 00:14:38;;;;;;;4.03;2.70;;;20.70;99.90;;;;;;4591856;19;20023;-74
2023/09/04 00:16:14;;;;;;;5.47;2.80;;;20.70;99.90;;;;;;4592499;19;19999;-73
2023/09/04 00:17:51;;;;;;;4.47;2.15;;;20.70;99.90;;;;;;4591902;19;19999;-74
2023/09/04 00:19:26;;;;;;;5.18;2.38;;;20.70;99.90;;;;;;4590044;19;20018;-73
2023/09/04 00:21:00;;;;;;;4.15;1.95;;;20.70;99.90;;;;;;4591813;19;20002;-73
2023/09/04 00:22:34;;;;;;;3.90;2.20;;;20.70;99.90;;;;;;4592654;19;20007;-73
2023/09/04 00:24:09;;;;;;;4.10;2.00;;;20.70;99.90;;;;;;4593158;19;20310;-74
2023/09/04 00:25:43;;;;;;;4.50;2.30;;;20.70;99.90;;;;;;4592341;19;20062;-73
2023/09/04 00:27:19;;;;;;;4.30;2.38;;;20.70;99.90;;;;;;4591283;19;19998;-74
2023/09/04 00:28:54;;;;;;;7.65;4.13;;;20.70;99.90;;;;;;4590551;19;20039;-73
2023/09/04 00:30:27;;;;;;;7.28;4.40;;;20.70;99.90;;;;;;4592316;19;20355;-73
2023/09/04 00:32:03;;;;;;;7.88;4.90;;;20.70;99.90;;;;;;4592452;19;20003;-73
2023/09/04 00:33:38;;;;;;;7.05;4.47;;;20.70;99.90;;;;;;4592336;19;20005;-73
2023/09/04 00:35:13;;;;;;;7.13;4.00;;;20.70;99.90;;;;;;4592430;19;20440;-73
2023/09/04 00:36:49;;;;;;;7.95;4.00;;;20.70;99.90;;;;;;4592220;19;20023;-74
2023/09/04 00:38:25;;;;;;;6.82;4.00;;;20.70;99.90;;;;;;4591527;19;20027;-73
2023/09/04 00:39:59;;;;;;;6.82;4.10;;;20.70;99.90;;;;;;4591449;19;20009;-74
2023/09/04 00:41:33;;;;;;;6.85;3.95;;;20.60;99.90;;;;;;4591930;19;20011;-74
2023/09/04 00:43:08;;;;;;;9.30;4.78;;;20.70;99.90;;;;;;4592800;19;20013;-74
2023/09/04 00:44:50;;;;;;;8.73;5.15;;;20.60;99.90;;;;;;4590621;19;20007;-74
2023/09/04 00:46:24;;;;;;;8.02;4.13;;;20.60;99.90;;;;;;4592164;19;20353;-73
2023/09/04 00:47:59;;;;;;;6.47;4.10;;;20.60;99.90;;;;;;4590258;19;20026;-73
2023/09/04 00:49:34;;;;;;;7.50;3.67;;;20.60;99.90;;;;;;4591476;19;20010;-74
2023/09/04 00:51:10;;;;;;;4.43;2.60;;;20.60;99.90;;;;;;4592248;19;20032;-74
2023/09/04 00:52:45;;;;;;;4.25;2.58;;;20.60;99.90;;;;;;4590542;19;20006;-73
2023/09/04 00:54:21;;;;;;;6.28;3.00;;;20.60;99.90;;;;;;4591536;19;20065;-74
2023/09/04 00:55:56;;;;;;;6.60;3.40;;;20.60;99.90;;;;;;4591861;19;20431;-74
2023/09/04 00:57:35;;;;;;;5.45;2.95;;;20.60;99.90;;;;;;4591960;19;19998;-73
2023/09/04 00:59:09;;;;;;;3.83;2.50;;;20.60;99.90;;;;;;4590763;19;20010;-73
2023/09/04 01:00:44;;;;;;;6.30;2.85;;;20.60;99.90;;;;;;4592012;19;20002;-74
2023/09/04 01:02:22;;;;;;;3.75;2.63;;;20.60;99.90;;;;;;4591737;19;20099;-73
2023/09/04 01:03:57;;;;;;;6.55;3.53;;;20.60;99.90;;;;;;4591745;19;20027;-74
2023/09/04 01:05:32;;;;;;;6.88;3.10;;;20.60;99.90;;;;;;4591915;19;20009;-73
2023/09/04 01:07:07;;;;;;;5.82;2.92;;;20.50;99.90;;;;;;4591984;19;20070;-74
2023/09/04 01:08:42;;;;;;;5.38;3.35;;;20.60;99.90;;;;;;4590767;19;20010;-73
2023/09/04 01:10:16;;;;;;;7.50;3.70;;;20.50;99.90;;;;;;4591627;19;20002;-73
2023/09/04 01:12:15;;;;;;;6.22;3.55;;;20.60;99.90;;;;;;4591599;19;20011;-73
2023/09/04 01:13:51;;;;;;;6.65;4.68;;;20.60;99.90;;;;;;4590443;19;20002;-74
2023/09/04 01:15:26;;;;;;;6.90;3.97;;;20.50;99.90;;;;;;4590474;19;20022;-74
2023/09/04 01:17:01;;;;;;;5.00;3.30;;;20.50;99.90;;;;;;4591241;19;20010;-74
2023/09/04 01:18:35;;;;;;;6.50;3.65;;;20.50;99.90;;;;;;4588922;19;20019;-73
2023/09/04 01:20:29;;;;;;;4.53;3.20;;;20.50;99.90;;;;;;4590543;19;20003;-74
2023/09/04 01:22:09;;;;;;;5.38;2.75;;;20.50;99.90;;;;;;4591350;19;20018;-73
2023/09/04 01:23:44;;;;;;;4.38;2.65;;;20.50;99.90;;;;;;4590414;19;20011;-73
2023/09/04 01:25:18;;;;;;;3.90;2.15;;;20.50;99.90;;;;;;4590931;19;20434;-73
2023/09/04 01:27:03;;;;;;;6.95;3.75;;;20.50;99.90;;;;;;4591728;19;20010;-73
2023/09/04 01:29:04;;;;;;;10.65;6.13;;;20.50;99.90;;;;;;4589394;19;20024;-73
2023/09/04 01:31:14;;;;;;;14.43;7.50;;;20.50;99.90;;;;;;4590314;19;20074;-74
2023/09/04 01:32:52;;;;;;;14.02;8.35;;;20.50;99.90;;;;;;4588757;19;20074;-74
2023/09/04 01:34:27;;;;;;;12.40;7.07;;;20.50;99.90;;;;;;4588849;19;20017;-73
2023/09/04 01:36:04;;;;;;;11.15;6.05;;;20.50;99.90;;;;;;4589170;19;20007;-73
2023/09/04 01:37:40;;;;;;;7.25;4.05;;;20.50;99.90;;;;;;4589026;19;20128;-73
2023/09/04 01:39:14;;;;;;;7.68;3.90;;;20.50;99.90;;;;;;4588734;19;20399;-73
2023/09/04 01:40:52;;;;;;;6.53;3.88;;;20.50;99.90;;;;;;4591503;19;20002;-73
2023/09/04 01:42:28;;;;;;;5.53;2.78;;;20.50;99.90;;;;;;4593443;19;19998;-74
2023/09/04 01:44:03;;;;;;;6.15;2.92;;;20.50;99.90;;;;;;4593297;19;20002;-73
2023/09/04 01:45:36;;;;;;;4.93;2.75;;;20.50;99.90;;;;;;4593632;19;20049;-73
2023/09/04 01:47:11;;;;;;;5.68;3.03;;;20.50;99.90;;;;;;4593579;19;20429;-73
2023/09/04 01:48:45;;;;;;;5.57;2.75;;;20.50;99.90;;;;;;4592210;19;20006;-73
2023/09/04 01:50:20;;;;;;;4.93;3.03;;;20.50;99.90;;;;;;4592995;19;20017;-74
2023/09/04 01:51:58;;;;;;;4.28;2.67;;;20.40;99.90;;;;;;4593227;19;20007;-74
2023/09/04 01:53:33;;;;;;;4.72;2.90;;;20.50;99.90;;;;;;4593220;19;20347;-73
2023/09/04 01:55:07;;;;;;;7.28;2.97;;;20.50;99.90;;;;;;4593169;19;19999;-73
2023/09/04 01:56:42;;;;;;;4.88;2.83;;;20.50;99.90;;;;;;4593071;19;20010;-73
2023/09/04 01:58:17;;;;;;;6.80;3.63;;;20.50;99.90;;;;;;4592265;19;20340;-73
2023/09/04 01:59:53;;;;;;;4.63;3.30;;;20.50;99.90;;;;;;4592114;19;20443;-73
2023/09/04 02:01:29;;;;;;;6.90;3.95;;;20.50;99.90;;;;;;4593121;19;20013;-73
2023/09/04 02:03:03;;;;;;;8.18;4.18;;;20.50;99.90;;;;;;4592836;19;20022;-74
2023/09/04 02:04:37;;;;;;;5.60;3.70;;;20.50;99.90;;;;;;4592896;19;20010;-73
2023/09/04 02:06:12;;;;;;;5.95;2.72;;;20.50;99.90;;;;;;4592831;19;20044;-73
2023/09/04 02:07:47;;;;;;;5.10;3.00;;;20.50;99.90;;;;;;4592918;19;20006;-73
2023/09/04 02:09:21;;;;;;;6.40;3.45;;;20.50;99.90;;;;;;4593437;19;20006;-73
2023/09/04 02:10:58;;;;;;;9.07;5.07;;;20.40;99.90;;;;;;4595215;19;20434;-73
2023/09/04 02:12:33;;;;;;;7.43;4.20;;;20.40;99.90;;;;;;4595355;19;19998;-73
2023/09/04 02:14:07;;;;;;;8.75;3.58;;;20.50;99.90;;;;;;4595042;19;20314;-74
2023/09/04 02:15:42;;;;;;;6.30;3.47;;;20.40;99.90;;;;;;4594960;19;20011;-73
2023/09/04 02:17:19;;;;;;;4.78;3.55;;;20.40;99.90;;;;;;4595278;19;20022;-74
2023/09/04 02:18:55;;;;;;;6.65;3.40;;;20.40;99.90;;;;;;4593635;19;20018;-74
2023/09/04 02:20:32;;;;;;;6.20;3.83;;;20.40;99.90;;;;;;4593649;19;20003;-74
2023/09/04 02:22:05;;;;;;;6.82;4.35;;;20.40;99.90;;;;;;4593945;19;20010;-74
2023/09/04 02:23:40;;;;;;;7.45;4.38;;;20.40;99.90;;;;;;4593787;19;20003;-73
2023/09/04 02:25:16;;;;;;;5.57;3.63;;;20.40;99.90;;;;;;4594630;19;19998;-74
2023/09/04 02:26:50;;;;;;;5.28;3.20;;;20.40;99.90;;;;;;4595071;19;20025;-73
2023/09/04 02:28:25;;;;;;;6.85;4.13;;;20.40;99.90;;;;;;4594183;19;20002;-74
2023/09/04 02:30:02;;;;;;;8.75;4.10;;;20.40;99.90;;;;;;4594955;19;19999;-73
2023/09/04 02:31:38;;;;;;;5.25;3.03;;;20.40;99.90;;;;;;4594789;19;20039;-73
2023/09/04 02:33:12;;;;;;;6.25;3.40;;;20.40;99.90;;;;;;4594670;19;20002;-73
2023/09/04 02:34:48;;;;;;;5.38;3.30;;;20.40;99.90;;;;;;4594978;19;19998;-73
2023/09/04 02:36:23;;;;;;;5.85;3.08;;;20.40;99.90;;;;;;4594598;19;19999;-74
2023/09/04 02:37:57;;;;;;;5.10;3.10;;;20.40;99.90;;;;;;4594211;19;20009;-73
2023/09/04 02:39:32;;;;;;;6.80;3.13;;;20.40;99.90;;;;;;4594172;19;20011;-73
2023/09/04 02:41:06;;;;;;;5.82;3.25;;;20.40;99.90;;;;;;4594766;19;20006;-73
2023/09/04 02:42:42;;;;;;;5.93;3.15;;;20.40;99.90;;;;;;4594521;19;20009;-73
2023/09/04 02:44:18;;;;;;;5.20;2.83;;;20.40;99.90;;;;;;4594563;19;20009;-74
2023/09/04 02:45:52;;;;;;;6.70;2.88;;;20.40;99.90;;;;;;4594631;19;20305;-74
2023/09/04 02:47:27;;;;;;;6.30;3.20;;;20.40;99.90;;;;;;4593033;19;20446;-74
2023/09/04 02:49:03;;;;;;;7.60;3.33;;;20.40;99.90;;;;;;4592741;19;20011;-73
2023/09/04 02:50:37;;;;;;;5.35;3.50;;;20.40;99.90;;;;;;4592880;19;20449;-73
2023/09/04 02:52:11;;;;;;;4.57;3.13;;;20.40;99.90;;;;;;4593644;19;20010;-73
2023/09/04 02:53:48;;;;;;;4.28;3.00;;;20.40;99.90;;;;;;4592939;19;20426;-74
2023/09/04 02:55:22;;;;;;;7.60;4.00;;;20.40;99.90;;;;;;4594144;19;20003;-73
2023/09/04 02:56:56;;;;;;;7.15;3.65;;;20.40;99.90;;;;;;4594163;19;20006;-73
2023/09/04 02:58:31;;;;;;;5.47;3.25;;;20.40;99.90;;;;;;4594035;19;20410;-74
2023/09/04 03:00:06;;;;;;;5.95;3.30;;;20.40;99.90;;;;;;4593525;19;19999;-73
2023/09/04 03:01:40;;;;;;;7.28;3.70;;;20.40;99.90;;;;;;4594079;19;20003;-73
2023/09/04 03:03:16;;;;;;;6.28;3.80;;;20.40;99.90;;;;;;4594819;19;20013;-73
2023/09/04 03:04:55;;;;;;;6.18;3.65;;;20.40;99.90;;;;;;4594258;19;20453;-73
2023/09/04 03:06:29;;;;;;;5.28;3.40;;;20.40;99.90;;;;;;4593981;19;20003;-73
2023/09/04 03:08:04;;;;;;;8.00;4.00;;;20.40;99.90;;;;;;4593533;19;20410;-74
2023/09/04 03:09:39;;;;;;;8.60;4.18;;;20.40;99.90;;;;;;4593921;19;20462;-74
2023/09/04 03:11:13;;;;;;;5.85;3.85;;;20.40;99.90;;;;;;4594127;19;20070;-73
2023/09/04 03:12:49;;;;;;;6.70;4.05;;;20.40;99.90;;;;;;4594168;19;20020;-73
2023/09/04 03:14:22;;;;;;;5.75;3.70;;;20.40;99.90;;;;;;4593827;19;20335;-73
2023/09/04 03:15:56;;;;;;;5.78;3.83;;;20.40;99.90;;;;;;4594048;19;20035;-74
2023/09/04 03:17:32;;;;;;;5.70;3.55;;;20.40;99.90;;;;;;4594034;19;19998;-73
2023/09/04 03:19:08;;;;;;;6.68;3.85;;;20.40;99.90;;;;;;4591057;19;20022;-74
2023/09/04 03:20:42;;;;;;;6.03;3.75;;;20.40;99.90;;;;;;4592369;19;20092;-74
2023/09/04 03:22:17;;;;;;;7.72;4.50;;;20.40;99.90;;;;;;4593950;19;20011;-74
2023/09/04 03:23:52;;;;;;;5.72;3.17;;;20.40;99.90;;;;;;4592559;19;20002;-73
2023/09/04 03:25:26;;;;;;;8.50;4.10;;;20.40;99.90;;;;;;4593245;19;20019;-73
2023/09/04 03:27:01;;;;;;;7.75;4.03;;;20.40;99.90;;;;;;4593630;19;20011;-73
2023/09/04 03:28:35;;;;;;;6.38;4.05;;;20.40;99.90;;;;;;4592659;19;20015;-73
2023/09/04 03:30:11;;;;;;;4.97;3.50;;;20.40;99.90;;;;;;4593471;19;19999;-73
2023/09/04 03:31:48;;;;;;;5.15;3.40;;;20.30;99.90;;;;;;4593611;19;20009;-74
2023/09/04 03:33:23;;;;;;;7.25;3.83;;;20.40;99.90;;;;;;4593690;19;20002;-74
2023/09/04 03:34:57;;;;;;;5.57;3.42;;;20.30;99.90;;;;;;4592042;19;20029;-74
2023/09/04 03:36:33;;;;;;;6.65;4.30;;;20.40;99.90;;;;;;4593404;19;20315;-74
2023/09/04 03:38:06;;;;;;;6.38;3.60;;;20.40;99.90;;;;;;4592886;19;20318;-73
2023/09/04 03:39:41;;;;;;;7.80;3.60;;;20.30;99.90;;;;;;4593222;19;20094;-73
2023/09/04 03:41:17;;;;;;;6.90;4.03;;;20.30;99.90;;;;;;4593284;19;20436;-74
2023/09/04 03:42:52;;;;;;;5.30;3.88;;;20.30;99.90;;;;;;4593153;19;20027;-74
2023/09/04 03:44:26;;;;;;;7.07;3.50;;;20.30;99.90;;;;;;4592176;19;20504;-73
2023/09/04 03:46:01;;;;;;;5.47;3.63;;;20.40;99.90;;;;;;4592907;19;20006;-73
2023/09/04 03:47:41;;;;;;;6.75;4.45;;;20.40;99.90;;;;;;4591909;19;20010;-73
2023/09/04 03:49:15;;;;;;;7.15;4.15;;;20.50;99.90;;;;;;4593044;19;20009;-74
2023/09/04 03:50:50;;;;;;;6.03;4.28;;;20.60;99.90;;;;;;4592646;19;20014;-73
2023/09/04 03:52:24;;;;;;;6.63;3.67;;;20.60;99.90;;;;;;4592543;19;20418;-74
2023/09/04 03:54:01;;;;;;;9.73;4.50;;;20.70;99.90;;;;;;4592540;19;20007;-73
2023/09/04 03:55:38;;;;;;;6.90;3.70;;;20.80;99.90;;;;;;4592426;19;20021;-74
2023/09/04 03:57:13;;;;;;;5.50;3.63;;;20.90;99.90;;;;;;4592274;19;20003;-74
2023/09/04 03:58:48;;;;;;;5.43;4.03;;;20.90;99.90;;;;;;4591536;19;20006;-73
2023/09/04 04:00:23;;;;;;;5.03;4.07;;;19.60;99.90;;;;;;4590081;19;20010;-73
2023/09/04 04:01:57;;;;;;;5.07;4.55;;;18.20;99.90;;;;;;4591818;19;20009;-73
2023/09/04 04:03:31;;;;;;;7.05;4.68;;;17.60;99.90;;;;;;4589733;19;20002;-73
2023/09/04 04:05:10;;;;;;;6.05;4.53;;;17.30;99.90;;;;;;4591808;19;20070;-74
2023/09/04 04:06:44;;;;;;;5.18;4.15;;;17.10;99.90;;;;;;4590668;19;20422;-73
2023/09/04 04:08:18;;;;;;;5.38;4.28;;;17.00;99.90;;;;;;4591311;19;20314;-73
2023/09/04 04:09:53;;;;;;;6.38;4.60;;;16.90;99.90;;;;;;4592113;19;19999;-73
2023/09/04 04:11:27;;;;;;;5.15;3.92;;;16.90;99.90;;;;;;4591950;19;20013;-73
2023/09/04 04:13:02;;;;;;;5.13;4.45;;;16.90;99.90;;;;;;4592033;19;19998;-73
2023/09/04 04:14:37;;;;;;;6.15;4.97;;;16.80;99.90;;;;;;4590691;19;20006;-73
2023/09/04 04:16:11;;;;;;;5.80;4.50;;;16.80;99.90;;;;;;4591836;19;20003;-73
2023/09/04 04:17:45;;;;;;;5.68;5.00;;;16.80;99.90;;;;;;4592001;19;20023;-73
2023/09/04 04:19:22;;;;;;;7.38;5.38;;;16.80;99.90;;;;;;4589571;19;20019;-73
2023/09/04 04:20:56;;;;;;;7.63;5.78;;;16.70;99.90;;;;;;4590834;19;19994;-74
2023/09/04 04:22:29;;;;;;;5.97;4.72;;;16.70;99.90;;;;;;4592140;19;20017;-73
2023/09/04 04:24:05;;;;;;;5.43;4.60;;;16.70;99.90;;;;;;4592491;19;20002;-73
2023/09/04 04:25:40;;;;;;;4.88;4.38;;;16.60;99.90;;;;;;4592199;19;19999;-73
2023/09/04 04:27:15;;;;;;;5.55;4.65;;;16.70;99.90;;;;;;4592369;19;20035;-73
2023/09/04 04:28:50;;;;;;;6.95;5.47;;;16.60;99.90;;;;;;4591495;19;20140;-73
2023/09/04 04:30:24;;;;;;;6.72;5.70;;;16.60;99.90;;;;;;4592285;19;20006;-73
2023/09/04 04:31:59;;;;;;;6.63;5.05;;;16.60;99.90;;;;;;4591714;19;20002;-73
2023/09/04 04:33:35;;;;;;;13.18;11.43;;;16.60;99.90;;;;;;4591087;19;20013;-74
2023/09/04 04:35:10;;;;;;;8.75;6.00;;;16.60;99.90;;;;;;4591872;19;20002;-74
2023/09/04 04:36:44;;;;;;;7.10;5.68;;;16.60;99.90;;;;;;4592449;19;20007;-73
2023/09/04 04:38:23;;;;;;;7.10;5.22;;;16.60;99.90;;;;;;4591862;19;20565;-73
2023/09/04 04:39:58;;;;;;;6.47;4.70;;;16.60;99.90;;;;;;4590116;19;20017;-74
2023/09/04 04:41:34;;;;;;;5.72;4.53;;;16.60;99.90;;;;;;4592139;19;19998;-73
2023/09/04 04:43:10;;;;;;;5.82;4.65;;;16.70;99.90;;;;;;4590740;19;20006;-73
2023/09/04 04:44:44;;;;;;;6.72;4.80;;;16.70;99.90;;;;;;4591989;19;19999;-73
2023/09/04 04:46:19;;;;;;;6.05;5.43;;;16.60;99.90;;;;;;4592079;19;20426;-74
2023/09/04 04:47:55;;;;;;;7.25;5.97;;;16.70;99.90;;;;;;4590435;19;20014;-73
2023/09/04 04:49:30;;;;;;;6.60;5.35;;;16.60;99.90;;;;;;4591005;19;20054;-73
2023/09/04 04:51:04;;;;;;;7.18;5.28;;;16.60;99.90;;;;;;4591633;19;20003;-73
2023/09/04 04:52:39;;;;;;;5.57;4.80;;;16.60;99.90;;;;;;4591122;19;20003;-73
2023/09/04 04:54:14;;;;;;;6.07;5.03;;;16.60;99.90;;;;;;4591588;19;19998;-73
2023/09/04 04:55:56;;;;;;;6.65;5.10;;;16.60;99.90;;;;;;4592026;19;20039;-73
2023/09/04 04:58:04;;;;;;;6.80;5.45;;;16.60;99.90;;;;;;4590965;19;20029;-75
2023/09/04 05:00:42;;;;;;;6.75;5.13;;;16.70;99.90;;;;;;4593183;19;20006;-74
2023/09/04 05:02:32;;;;;;;5.93;5.03;;;16.70;99.90;;;;;;4593946;19;20317;-73
2023/09/04 05:04:08;;;;;;;6.88;5.85;;;16.70;99.90;;;;;;4591334;19;20010;-73
2023/09/04 05:05:46;;;;;;;7.60;5.30;;;16.60;99.90;;;;;;4594145;19;20010;-74
2023/09/04 05:07:22;;;;;;;5.57;5.03;;;16.70;99.90;;;;;;4591879;19;20010;-73
2023/09/04 05:08:56;;;;;;;7.07;6.30;;;16.70;99.90;;;;;;4592223;19;20010;-73
2023/09/04 05:10:36;;;;;;;5.93;4.85;;;16.70;99.90;;;;;;4593243;19;20422;-73
2023/09/04 05:12:13;;;;;;;6.30;4.85;;;16.70;99.90;;;;;;4591334;19;20018;-73
2023/09/04 05:13:48;;;;;;;6.68;5.00;;;16.60;99.90;;;;;;4593856;19;20030;-73
2023/09/04 05:15:22;;;;;;;6.63;5.63;;;16.60;99.90;;;;;;4592895;19;20015;-73
2023/09/04 05:16:57;;;;;;;6.45;5.28;;;16.60;99.90;;;;;;4598266;19;20464;-73
2023/09/04 05:18:36;;;;;;;6.30;5.30;;;16.70;99.90;;;;;;4596024;19;20019;-73
2023/09/04 05:20:10;;;;;;;6.97;5.60;;;16.70;99.90;;;;;;4594710;19;20332;-73
2023/09/04 05:21:45;;;;;;;6.38;5.28;;;16.70;99.90;;;;;;4597381;19;20027;-73
2023/09/04 05:23:19;;;;;;;7.30;5.60;;;16.70;99.90;;;;;;4597215;19;20438;-73
2023/09/04 05:24:54;;;;;;;7.95;6.38;;;16.70;99.90;;;;;;4598066;19;20017;-73
2023/09/04 05:26:29;;;;;;;7.30;5.63;;;16.70;99.90;;;;;;4597515;19;20014;-73
2023/09/04 05:28:03;;;;;;;6.70;5.10;;;16.70;99.90;;;;;;4596634;19;20465;-73
2023/09/04 05:29:37;;;;;;;6.45;5.25;;;16.70;99.90;;;;;;4597241;19;20014;-73
2023/09/04 05:31:14;;;;;;;5.88;4.75;;;16.70;99.90;;;;;;4597494;19;20441;-73
2023/09/04 05:32:48;;;;;;;11.18;7.88;;;16.80;99.90;;;;;;4595887;19;20334;-73
2023/09/04 05:34:22;;;;;;;7.32;5.97;;;16.80;99.90;;;;;;4594780;19;20024;-73
2023/09/04 05:35:57;;;;;;;6.68;5.75;;;16.80;99.90;;;;;;4595452;19;20018;-73
2023/09/04 05:37:31;;;;;;;6.53;5.28;;;16.80;99.90;;;;;;4594517;19;20017;-73
2023/09/04 05:39:06;;;;;;;7.32;5.47;;;16.80;99.90;;;;;;4593912;19;20005;-73
2023/09/04 05:40:41;;;;;;;7.03;5.53;;;16.80;99.90;;;;;;4593108;19;20310;-73
2023/09/04 05:42:16;;;;;;;6.03;5.05;;;16.80;99.90;;;;;;4595590;19;20006;-73
2023/09/04 05:43:49;;;;;;;6.43;5.32;;;16.80;99.90;;;;;;4595872;19;20002;-73
2023/09/04 05:45:27;;;;;;;6.93;4.95;;;16.80;99.90;;;;;;4594405;19;20006;-73
2023/09/04 05:47:01;;;;;;;6.07;5.18;;;16.90;99.90;;;;;;4594288;19;20044;-73
2023/09/04 05:48:36;;;;;;;4.95;4.43;;;16.90;99.90;;;;;;4593114;19;20002;-73
2023/09/04 05:50:12;;;;;;;8.57;5.55;;;16.80;99.90;;;;;;4595297;19;19999;-73
2023/09/04 05:51:46;;;;;;;6.22;5.15;;;16.90;99.90;;;;;;4595843;19;20027;-73
2023/09/04 05:53:20;;;;;;;6.53;4.80;;;16.90;99.90;;;;;;4595482;19;19999;-73
2023/09/04 05:54:55;;;;;;;5.00;4.50;;;16.90;99.90;;;;;;4595541;19;20010;-74
2023/09/04 05:56:29;;;;;;;7.65;5.15;;;16.90;99.90;;;;;;4595779;19;20010;-73
2023/09/04 05:58:04;;;;;;;7.90;5.72;;;16.90;99.90;;;;;;4593786;19;20038;-73
2023/09/04 05:59:40;;;;;;;7.43;5.05;;;16.90;99.90;;;;;;4594596;19;20437;-73
2023/09/04 06:01:14;;;;;;;6.50;5.43;;;16.90;99.90;;;;;;4595231;19;20018;-73
2023/09/04 06:02:49;;;;;;;7.90;5.45;;;16.90;99.90;;;;;;4595551;19;20003;-73
2023/09/04 06:04:25;;;;;;;5.80;5.00;;;16.90;99.90;;;;;;4593798;19;20376;-73
2023/09/04 06:05:59;;;;;;;6.15;5.20;;;17.00;99.90;;;;;;4593718;19;20011;-73
2023/09/04 06:07:34;;;;;;;5.38;4.70;;;16.90;99.90;;;;;;4594700;19;20013;-73
2023/09/04 06:09:09;;;;;;;4.32;3.92;;;16.90;99.90;;;;;;4592472;19;20379;-73
2023/09/04 06:10:43;;;;;;;5.28;3.67;;;17.20;99.90;;;;;;4594756;19;20009;-74
2023/09/04 06:12:24;;;;;;;6.30;4.20;;;17.60;99.90;;;;;;4595447;19;20035;-73
2023/09/04 06:14:01;;;;;;;7.45;4.65;;;18.10;99.90;;;;;;4595513;19;20431;-75
2023/09/04 06:15:37;;;;;;;6.13;3.75;;;18.40;99.90;;;;;;4596503;19;20014;-74
2023/09/04 06:17:11;;;;;;;6.78;3.88;;;18.70;99.90;;;;;;4597178;19;20041;-74
2023/09/04 06:18:49;;;;;;;8.60;4.45;;;18.90;99.90;;;;;;4596517;19;20011;-74
2023/09/04 06:20:24;;;;;;;8.50;4.47;;;19.10;99.90;;;;;;4595944;19;20014;-74
2023/09/04 06:22:01;;;;;;;7.50;3.95;;;19.20;99.90;;;;;;4596024;19;20036;-75
2023/09/04 06:23:39;;;;;;;5.75;4.25;;;19.30;99.90;;;;;;4597134;19;20463;-74
2023/09/04 06:25:13;;;;;;;8.80;4.63;;;19.40;99.90;;;;;;4596529;19;20025;-74
2023/09/04 06:26:47;;;;;;;8.93;4.45;;;19.50;99.90;;;;;;4597524;19;20441;-75
2023/09/04 06:28:23;;;;;;;7.55;3.80;;;19.60;99.90;;;;;;4597393;19;20036;-73
2023/09/04 06:29:57;;;;;;;6.53;3.97;;;19.60;99.90;;;;;;4597057;19;20029;-74
2023/09/04 06:31:33;;;;;;;7.30;4.30;;;19.70;99.90;;;;;;4597934;19;20002;-74
2023/09/04 06:33:14;;;;;;;7.70;4.72;;;19.70;99.90;;;;;;4596190;19;20010;-75
2023/09/04 06:34:52;;;;;;;5.50;3.88;;;19.80;99.90;;;;;;4597946;19;20003;-74
2023/09/04 06:36:33;;;;;;;7.20;4.25;;;19.80;99.90;;;;;;4595722;19;20011;-75
2023/09/04 06:38:10;;;;;;;5.60;3.65;;;19.80;99.90;;;;;;4595464;19;20078;-75
2023/09/04 06:39:45;;;;;;;8.27;4.28;;;19.80;99.90;;;;;;4596407;19;20015;-74
2023/09/04 06:41:21;;;;;;;6.32;3.90;;;19.90;99.90;;;;;;4596184;19;20014;-74
2023/09/04 06:42:57;;;;;;;6.50;3.70;;;19.90;99.90;;;;;;4593905;19;20018;-74
2023/09/04 06:44:32;;;;;;;6.43;3.78;;;19.90;99.90;;;;;;4597045;19;20014;-74
2023/09/04 06:46:06;;;;;;;5.95;4.22;;;19.90;99.90;;;;;;4595634;19;20046;-73
2023/09/04 06:47:45;;;;;;;7.00;3.92;;;20.00;99.90;;;;;;4594926;19;20010;-73
2023/09/04 06:49:21;;;;;;;6.75;3.10;;;20.00;99.90;;;;;;4595798;19;20018;-74
2023/09/04 06:50:57;;;;;;;7.18;4.30;;;20.00;99.90;;;;;;4595166;19;20018;-77
2023/09/04 06:52:39;;;;;;;5.70;4.10;;;20.00;99.90;;;;;;4597988;19;20027;-77
2023/09/04 06:54:14;;;;;;;8.27;4.03;;;20.10;99.90;;;;;;4594933;19;20022;-74
2023/09/04 06:55:49;;;;;;;7.88;4.43;;;20.10;99.90;;;;;;4596326;19;20013;-75
2023/09/04 06:57:25;;;;;;;5.70;4.10;;;20.10;99.90;;;;;;4596114;19;20018;-75
2023/09/04 06:58:59;;;;;;;8.90;3.65;;;20.10;99.90;;;;;;4592061;19;20045;-74
2023/09/04 07:00:32;;;;;;;8.48;4.18;;;20.20;99.90;;;;;;4595460;19;20010;-74
2023/09/04 07:02:10;;;;;;;4.88;3.90;;;20.20;99.90;;;;;;4594341;19;20466;-74
2023/09/04 07:03:44;;;;;;;5.88;4.15;;;20.20;99.90;;;;;;4595769;19;20011;-74
2023/09/04 07:05:18;;;;;;;5.97;4.10;;;20.20;99.90;;;;;;4595626;19;20376;-74
2023/09/04 07:06:54;;;;;;;6.57;4.00;;;20.20;99.90;;;;;;4593645;19;20007;-74
2023/09/04 07:08:30;;;;;;;6.32;3.50;;;20.20;99.90;;;;;;4595714;19;20327;-74
2023/09/04 07:10:06;;;;;;;4.88;3.50;;;20.30;99.90;;;;;;4595576;19;20303;-74
2023/09/04 07:11:41;;;;;;;7.53;4.32;;;20.30;99.90;;;;;;4594612;19;20022;-74
2023/09/04 07:13:24;;;;;;;5.57;3.53;;;20.30;99.90;;;;;;4595012;19;20018;-75
2023/09/04 07:14:58;;;;;;;6.53;4.20;;;20.30;99.90;;;;;;4594502;19;20449;-74
2023/09/04 07:16:38;;;;;;;5.63;3.75;;;20.30;99.90;;;;;;4595111;19;20009;-74
2023/09/04 07:18:13;;;;;;;6.97;4.20;;;20.30;99.90;;;;;;4593342;19;20018;-74
2023/09/04 07:19:48;;;;;;;6.20;3.40;;;20.30;99.90;;;;;;4593951;19;20015;-74
2023/09/04 07:21:23;;;;;;;5.25;3.72;;;20.30;99.90;;;;;;4593792;19;20018;-74
2023/09/04 07:23:02;;;;;;;6.95;3.85;;;20.30;99.90;;;;;;4594220;19;20015;-74
2023/09/04 07:24:39;;;;;;;7.68;3.95;;;20.30;99.90;;;;;;4594906;19;20016;-74
2023/09/04 07:26:15;;;;;;;8.52;4.03;;;20.30;99.90;;;;;;4593940;19;20014;-74
2023/09/04 07:27:50;;;;;;;8.82;4.00;;;20.30;99.90;;;;;;4595050;19;20011;-74
2023/09/04 07:29:24;;;;;;;6.72;4.20;;;20.40;99.90;;;;;;4595037;19;20014;-74
2023/09/04 07:31:18;;;;;;;7.78;3.90;;;20.40;99.90;;;;;;4594432;19;20351;-74
2023/09/04 07:32:56;;;;;;;5.18;3.28;;;20.40;99.90;;;;;;4595865;19;20010;-74
2023/09/04 07:34:30;;;;;;;6.88;3.83;;;20.40;99.90;;;;;;4595490;19;20021;-75
2023/09/04 07:36:11;;;;;;;6.25;3.85;;;20.40;99.90;;;;;;4593006;19;20010;-75
2023/09/04 07:37:49;;;;;;;7.13;4.05;;;20.40;99.90;;;;;;4593902;19;20015;-74
2023/09/04 07:39:26;;;;;;;7.18;3.58;;;20.40;99.90;;;;;;4592880;19;20011;-74
2023/09/04 07:41:03;;;;;;;8.50;5.00;;;20.40;99.90;;;;;;4593998;19;20018;-74
2023/09/04 07:42:36;;;;;;;9.23;4.20;;;20.40;99.90;;;;;;4593311;19;20015;-74
2023/09/04 07:44:10;;;;;;;5.38;3.78;;;20.40;99.90;;;;;;4593581;19;20452;-74
2023/09/04 07:45:48;;;;;;;6.18;3.63;;;20.40;99.90;;;;;;4596277;19;20041;-74
2023/09/04 07:47:25;;;;;;;7.63;3.55;;;20.40;99.90;;;;;;4592802;19;20017;-74
2023/09/04 07:48:59;;;;;;;9.55;4.10;;;20.50;99.90;;;;;;4593275;19;20022;-73
2023/09/04 07:50:36;;;;;;;5.60;3.22;;;20.40;99.90;;;;;;4593980;19;20014;-74
2023/09/04 07:52:16;;;;;;;6.20;3.78;;;20.40;99.90;;;;;;4593930;19;20334;-74
2023/09/04 07:53:50;;;;;;;6.57;3.30;;;20.40;99.90;;;;;;4595384;19;20033;-74
2023/09/04 07:55:26;;;;;;;7.43;3.13;;;20.50;99.90;;;;;;4594549;19;20014;-74
2023/09/04 07:57:04;;;;;;;7.05;3.00;;;20.50;99.90;;;;;;4595028;19;20010;-74
2023/09/04 07:58:39;;;;;;;5.10;3.08;;;20.50;99.90;;;;;;4593431;19;20340;-74
2023/09/04 08:00:21;;;;;;;6.13;3.35;;;20.50;99.90;;;;;;4593203;19;20383;-74
2023/09/04 08:01:56;;;;;;;4.75;3.17;;;20.50;99.90;;;;;;4594390;19;20297;-74
2023/09/04 08:03:30;;;;;;;5.25;3.03;;;20.50;99.90;;;;;;4594278;19;20031;-74
2023/09/04 08:05:08;;;;;;;7.88;3.45;;;20.50;99.90;;;;;;4591861;19;20015;-73
2023/09/04 08:06:42;;;;;;;5.90;3.47;;;20.50;99.90;;;;;;4591280;19;20018;-74
2023/09/04 08:08:16;;;;;;;10.25;3.30;;;20.50;99.90;;;;;;4590195;19;20014;-75
2023/09/04 08:09:51;;;;;;;5.55;3.00;;;20.60;99.90;;;;;;4590702;19;20015;-74
2023/09/04 08:11:25;;;;;;;5.88;3.00;;;20.50;99.90;;;;;;4590635;19;20010;-73
2023/09/04 08:12:59;;;;;;;7.53;3.20;;;20.60;99.90;;;;;;4589747;19;20236;-74
2023/09/04 08:14:36;;;;;;;6.40;2.92;;;20.60;99.90;;;;;;4591046;19;20025;-74
2023/09/04 08:16:09;;;;;;;4.35;2.85;;;20.60;99.90;;;;;;4591529;19;20014;-75
2023/09/04 08:17:45;;;;;;;5.15;3.28;;;20.60;99.90;;;;;;4589656;19;20007;-78
2023/09/04 08:19:20;;;;;;;6.22;2.85;;;20.60;99.90;;;;;;4590021;19;20022;-75